Time;durP1;ratioP1;P1;durP2;ratioP2;P2;SDS_P1;SDS_P2;PMS_P1;PMS_P2;Temp;Humidity;BMP_temperature;BMP_pressure;BME280_temperature;BME280_humidity;BME280_pressure;Samples;Min_cycle;Max_cycle;Signal;HPM_P1;HPM_P2
2021/03/08 00:02:12;;;;;;;1.70;0.60;;;2.40;99.90;;;;;;5092276;28;20282;-64
2021/03/08 00:04:38;;;;;;;1.48;0.20;;;2.30;99.90;;;;;;5090800;28;20188;-63
2021/03/08 00:07:03;;;;;;;1.50;0.20;;;2.30;99.90;;;;;;5091903;28;20194;-64
2021/03/08 00:09:29;;;;;;;1.50;0.30;;;2.40;99.90;;;;;;5090434;28;20580;-63
2021/03/08 00:11:54;;;;;;;9.83;6.37;;;2.40;99.90;;;;;;5090425;28;20287;-64
2021/03/08 00:14:20;;;;;;;1.50;0.30;;;2.30;99.90;;;;;;5091697;28;20208;-64
2021/03/08 00:16:45;;;;;;;1.50;0.30;;;2.40;99.90;;;;;;5090909;28;20635;-65
2021/03/08 00:19:11;;;;;;;2.43;1.17;;;2.30;99.90;;;;;;5090964;28;20520;-63
2021/03/08 00:21:36;;;;;;;2.43;1.40;;;2.20;99.90;;;;;;5071646;28;20203;-63
2021/03/08 00:24:02;;;;;;;2.43;1.33;;;2.10;99.90;;;;;;5091542;28;20183;-62
2021/03/08 00:26:27;;;;;;;1.80;1.13;;;2.20;99.90;;;;;;5088204;28;20176;-62
2021/03/08 00:28:53;;;;;;;1.50;0.20;;;2.10;99.90;;;;;;5088644;28;20188;-63
2021/03/08 00:31:18;;;;;;;1.50;0.20;;;2.20;99.90;;;;;;5089779;28;20227;-63
2021/03/08 00:33:44;;;;;;;1.50;0.20;;;2.20;99.90;;;;;;5092386;28;20178;-63
2021/03/08 00:36:09;;;;;;;1.70;0.77;;;2.30;99.90;;;;;;5094812;28;20180;-66
2021/03/08 00:38:35;;;;;;;1.80;0.70;;;2.10;99.90;;;;;;5111281;28;20187;-63
2021/03/08 00:41:01;;;;;;;1.50;0.20;;;2.10;99.90;;;;;;5094179;28;20286;-63
2021/03/08 00:43:26;;;;;;;1.47;0.20;;;2.00;99.90;;;;;;5089455;28;20222;-63
2021/03/08 00:45:51;;;;;;;1.40;0.20;;;2.10;99.90;;;;;;5091989;28;20763;-63
2021/03/08 00:48:17;;;;;;;1.50;0.20;;;2.20;99.90;;;;;;5086257;28;20180;-63
2021/03/08 00:50:43;;;;;;;1.40;0.20;;;2.20;99.90;;;;;;5088346;28;20204;-63
2021/03/08 00:53:08;;;;;;;1.50;0.30;;;2.20;99.90;;;;;;5090900;28;20290;-63
2021/03/08 00:55:34;;;;;;;1.40;0.20;;;2.10;99.90;;;;;;5091070;28;20254;-63
2021/03/08 00:57:59;;;;;;;1.40;0.30;;;2.10;99.90;;;;;;5088587;28;20282;-63
2021/03/08 01:00:28;;;;;;;1.47;0.20;;;2.00;99.90;;;;;;5087868;28;20562;-63
2021/03/08 01:02:54;;;;;;;1.50;0.20;;;1.90;99.90;;;;;;5088045;28;20198;-63
2021/03/08 01:05:20;;;;;;;1.45;0.20;;;1.90;99.90;;;;;;5072778;28;20206;-63
2021/03/08 01:07:46;;;;;;;1.45;0.20;;;1.80;99.90;;;;;;5089820;28;20519;-63
2021/03/08 01:10:15;;;;;;;1.47;0.20;;;1.90;99.90;;;;;;5087284;28;20183;-63
2021/03/08 01:12:41;;;;;;;1.48;0.20;;;1.90;99.90;;;;;;5089479;28;20497;-63
2021/03/08 01:15:08;;;;;;;2.40;2.20;;;1.90;99.90;;;;;;5091196;28;20226;-63
2021/03/08 01:17:35;;;;;;;1.50;0.20;;;1.90;99.90;;;;;;5087667;28;20441;-64
2021/03/08 01:20:01;;;;;;;1.50;0.20;;;1.90;99.90;;;;;;5082134;28;20207;-63
2021/03/08 01:22:26;;;;;;;1.40;0.20;;;1.90;99.90;;;;;;5091353;28;20242;-63
2021/03/08 01:24:52;;;;;;;1.50;0.20;;;1.90;99.90;;;;;;5076575;28;20179;-63
2021/03/08 01:27:17;;;;;;;1.47;0.20;;;1.90;99.90;;;;;;5093940;28;20234;-63
2021/03/08 01:29:43;;;;;;;1.47;0.20;;;1.90;99.90;;;;;;5096490;28;20188;-63
2021/03/08 01:32:08;;;;;;;1.60;0.40;;;1.90;99.90;;;;;;5094961;28;20214;-63
2021/03/08 01:34:34;;;;;;;1.47;0.20;;;1.90;99.90;;;;;;5094049;28;20263;-62
2021/03/08 01:36:59;;;;;;;1.40;0.20;;;1.80;99.90;;;;;;5094838;28;20176;-63
2021/03/08 01:39:25;;;;;;;1.50;0.20;;;1.90;99.90;;;;;;5092712;28;20172;-63
2021/03/08 01:41:51;;;;;;;1.40;0.20;;;1.90;99.90;;;;;;5075167;28;20204;-63
2021/03/08 01:44:16;;;;;;;1.50;0.20;;;1.90;99.90;;;;;;5091819;28;20215;-63
2021/03/08 01:46:42;;;;;;;1.50;0.30;;;1.80;99.90;;;;;;5094845;28;20231;-63
2021/03/08 01:49:07;;;;;;;1.50;0.20;;;1.70;99.90;;;;;;5094730;28;20184;-63
2021/03/08 01:51:33;;;;;;;1.40;0.20;;;1.60;99.90;;;;;;5090213;28;20219;-63
2021/03/08 01:53:59;;;;;;;1.50;0.20;;;1.70;99.90;;;;;;5093124;28;20184;-63
2021/03/08 01:56:25;;;;;;;1.40;0.20;;;1.70;99.90;;;;;;5095674;28;20192;-63
2021/03/08 01:58:50;;;;;;;1.70;0.40;;;1.60;99.90;;;;;;5092312;28;20503;-63
2021/03/08 02:01:16;;;;;;;1.47;0.20;;;1.70;99.90;;;;;;5097423;28;20507;-63
2021/03/08 02:03:42;;;;;;;1.40;0.20;;;1.60;99.90;;;;;;5093183;28;20440;-63
2021/03/08 02:06:07;;;;;;;1.43;0.20;;;1.70;99.90;;;;;;5093378;28;20180;-62
2021/03/08 02:08:33;;;;;;;2.80;0.83;;;1.60;99.90;;;;;;5076965;28;20179;-63
2021/03/08 02:10:58;;;;;;;1.40;0.20;;;1.60;99.90;;;;;;5089669;28;20199;-63
2021/03/08 02:13:24;;;;;;;1.47;0.20;;;1.60;99.90;;;;;;5092598;28;20603;-62
2021/03/08 02:16:17;;;;;;;1.43;0.20;;;1.60;99.90;;;;;;5094603;28;20561;-65
2021/03/08 02:19:01;;;;;;;1.48;0.20;;;1.60;99.90;;;;;;5112811;28;20184;-63
2021/03/08 02:21:59;;;;;;;1.42;0.20;;;1.50;99.90;;;;;;5091295;28;20269;-63
2021/03/08 02:24:32;;;;;;;1.45;0.20;;;1.60;99.90;;;;;;5087904;28;20187;-63
2021/03/08 02:27:03;;;;;;;1.45;0.20;;;1.50;99.90;;;;;;5093623;28;20546;-62
2021/03/08 02:29:55;;;;;;;1.50;0.20;;;1.50;99.90;;;;;;5092493;28;20183;-63
2021/03/08 02:32:26;;;;;;;1.48;0.20;;;1.50;99.90;;;;;;5092072;28;20201;-63
2021/03/08 02:35:27;;;;;;;1.48;0.20;;;1.50;99.90;;;;;;5091997;28;20184;-63
2021/03/08 02:37:57;;;;;;;1.42;0.20;;;1.40;99.90;;;;;;5061032;28;20199;-63
2021/03/08 02:40:37;;;;;;;1.45;0.20;;;1.50;99.90;;;;;;5090458;28;20207;-62
2021/03/08 02:43:20;;;;;;;1.48;0.20;;;1.40;99.90;;;;;;5084444;28;20172;-63
2021/03/08 02:45:49;;;;;;;1.50;0.50;;;1.40;99.90;;;;;;5095618;28;20187;-63
2021/03/08 02:48:15;;;;;;;1.42;0.20;;;1.50;99.90;;;;;;5091955;28;20271;-63
2021/03/08 02:50:42;;;;;;;1.45;0.20;;;1.50;99.90;;;;;;5096205;28;20265;-63
2021/03/08 02:53:12;;;;;;;1.45;0.20;;;1.40;99.90;;;;;;5092777;28;20206;-63
2021/03/08 02:55:53;;;;;;;1.60;0.73;;;1.30;99.90;;;;;;5092691;28;20184;-63
2021/03/08 02:58:22;;;;;;;1.45;0.20;;;1.50;99.90;;;;;;5095395;28;20228;-63
2021/03/08 03:00:49;;;;;;;1.42;0.20;;;1.50;99.90;;;;;;5094371;28;20228;-64
2021/03/08 03:03:17;;;;;;;1.40;0.20;;;1.50;99.90;;;;;;5090166;28;20588;-63
2021/03/08 03:05:44;;;;;;;1.48;0.20;;;1.50;99.90;;;;;;5093512;28;20196;-63
2021/03/08 03:08:11;;;;;;;1.42;0.20;;;1.50;99.90;;;;;;5091034;28;20182;-63
2021/03/08 03:10:39;;;;;;;1.50;0.20;;;1.50;99.90;;;;;;5092430;28;20214;-63
2021/03/08 03:13:05;;;;;;;1.48;0.20;;;1.50;99.90;;;;;;5093931;28;20564;-63
2021/03/08 03:15:36;;;;;;;1.40;0.20;;;1.40;99.90;;;;;;5089039;28;20199;-63
2021/03/08 03:18:02;;;;;;;1.40;0.20;;;1.30;99.90;;;;;;5090023;28;20207;-63
2021/03/08 03:20:29;;;;;;;1.42;0.20;;;1.30;99.90;;;;;;5092314;28;20204;-63
2021/03/08 03:22:58;;;;;;;1.42;0.20;;;1.30;99.90;;;;;;5093564;28;20188;-63
2021/03/08 03:25:25;;;;;;;1.45;0.20;;;1.40;99.90;;;;;;5087936;28;20671;-63
2021/03/08 03:27:52;;;;;;;1.48;0.20;;;1.30;99.90;;;;;;5091745;28;20382;-63
2021/03/08 03:30:23;;;;;;;1.50;0.25;;;1.30;99.90;;;;;;5093384;28;20302;-63
2021/03/08 03:32:49;;;;;;;1.90;1.30;;;1.20;99.90;;;;;;5090511;28;20207;-62
2021/03/08 03:35:17;;;;;;;1.50;0.30;;;1.20;99.90;;;;;;5092936;28;20180;-62
2021/03/08 03:37:44;;;;;;;1.40;0.20;;;1.10;99.90;;;;;;5093166;28;20184;-63
2021/03/08 03:40:14;;;;;;;1.48;0.20;;;1.10;99.90;;;;;;5092157;28;20180;-63
2021/03/08 03:42:42;;;;;;;2.58;0.70;;;1.10;99.90;;;;;;5094242;28;20488;-63
2021/03/08 03:45:10;;;;;;;1.40;0.20;;;1.10;99.90;;;;;;5091182;28;20188;-63
2021/03/08 03:47:40;;;;;;;1.48;0.20;;;1.10;99.90;;;;;;5090320;28;20601;-63
2021/03/08 03:50:08;;;;;;;1.50;0.20;;;1.10;99.90;;;;;;5089146;28;20188;-63
2021/03/08 03:52:35;;;;;;;1.48;0.20;;;1.10;99.90;;;;;;5090612;28;20215;-63
2021/03/08 03:55:01;;;;;;;1.45;0.20;;;1.00;99.90;;;;;;5092489;28;20547;-63
2021/03/08 03:57:33;;;;;;;1.40;0.20;;;1.00;99.90;;;;;;5095688;28;20188;-63
2021/03/08 04:00:00;;;;;;;1.50;0.20;;;1.00;99.90;;;;;;5091621;28;20180;-63
2021/03/08 04:02:31;;;;;;;1.50;0.50;;;1.00;99.90;;;;;;5089132;28;20192;-62
2021/03/08 04:05:02;;;;;;;1.48;0.20;;;1.00;99.90;;;;;;5093555;28;20700;-62
2021/03/08 04:07:29;;;;;;;1.50;0.30;;;0.90;99.90;;;;;;5090090;28;20658;-63
2021/03/08 04:09:55;;;;;;;1.40;0.20;;;1.00;99.90;;;;;;5090882;28;20180;-63
2021/03/08 04:12:34;;;;;;;1.40;0.20;;;0.90;99.90;;;;;;5093107;28;20628;-63
2021/03/08 04:15:06;;;;;;;1.40;0.20;;;1.10;99.90;;;;;;5092895;28;20190;-63
2021/03/08 04:17:38;;;;;;;1.48;0.20;;;1.10;99.90;;;;;;5064977;28;20249;-63
2021/03/08 04:20:06;;;;;;;1.42;0.20;;;1.20;99.90;;;;;;5092701;28;20543;-61
2021/03/08 04:22:33;;;;;;;1.75;0.63;;;1.20;99.90;;;;;;5088314;28;20270;-62
2021/03/08 04:24:59;;;;;;;1.40;0.20;;;1.20;99.90;;;;;;5090078;28;20554;-62
2021/03/08 04:27:26;;;;;;;1.50;0.30;;;1.20;99.90;;;;;;5093925;28;20192;-62
2021/03/08 04:29:54;;;;;;;1.50;0.40;;;1.10;99.90;;;;;;5091097;23;20817;-56
2021/03/08 04:32:21;;;;;;;1.50;0.20;;;1.00;99.90;;;;;;5108749;28;20214;-57
2021/03/08 04:34:48;;;;;;;1.40;0.20;;;0.90;99.90;;;;;;5107625;27;20183;-56
2021/03/08 04:37:15;;;;;;;1.50;0.20;;;0.90;99.90;;;;;;5108039;28;20183;-56
2021/03/08 04:39:42;;;;;;;1.40;0.20;;;1.00;99.90;;;;;;5103465;28;20211;-56
2021/03/08 04:42:10;;;;;;;1.48;0.20;;;1.00;99.90;;;;;;5088049;28;20183;-56
2021/03/08 04:44:39;;;;;;;1.42;0.20;;;1.00;99.90;;;;;;5089777;28;20204;-57
2021/03/08 04:47:05;;;;;;;1.50;0.20;;;1.00;99.90;;;;;;5088544;28;20188;-56
2021/03/08 04:49:33;;;;;;;1.42;0.20;;;1.10;99.90;;;;;;5085315;28;20294;-55
2021/03/08 04:51:59;;;;;;;1.50;0.20;;;1.00;99.90;;;;;;5087510;28;20204;-56
2021/03/08 04:54:25;;;;;;;1.50;0.20;;;1.00;99.90;;;;;;5090367;28;20218;-56
2021/03/08 04:56:53;;;;;;;1.40;0.20;;;1.00;99.90;;;;;;5088788;28;20188;-56
2021/03/08 04:59:18;;;;;;;1.50;0.20;;;0.90;99.90;;;;;;5087427;28;20279;-56
2021/03/08 05:01:48;;;;;;;1.50;0.20;;;0.90;99.90;;;;;;5092871;28;20233;-56
2021/03/08 05:04:16;;;;;;;1.40;0.20;;;0.80;99.90;;;;;;5083232;28;20281;-56
2021/03/08 05:06:42;;;;;;;1.70;0.93;;;0.80;99.90;;;;;;5090032;28;20184;-56
2021/03/08 05:09:10;;;;;;;1.48;0.20;;;0.80;99.90;;;;;;5090943;28;20733;-56
2021/03/08 05:11:37;;;;;;;1.50;0.20;;;0.70;99.90;;;;;;5092540;28;20274;-56
2021/03/08 05:14:11;;;;;;;1.40;0.20;;;0.60;99.90;;;;;;5082133;28;20175;-58
2021/03/08 05:16:42;;;;;;;1.45;0.20;;;0.60;99.90;;;;;;5111060;28;20634;-55
2021/03/08 05:19:09;;;;;;;1.50;0.40;;;0.60;99.90;;;;;;5109966;28;20195;-58
2021/03/08 05:21:48;;;;;;;1.50;0.20;;;0.60;99.90;;;;;;5109442;28;20188;-56
2021/03/08 05:24:15;;;;;;;1.50;0.20;;;0.70;99.90;;;;;;5108752;28;20183;-56
2021/03/08 05:26:41;;;;;;;1.50;0.20;;;0.70;99.90;;;;;;5112612;28;20190;-56
2021/03/08 05:29:08;;;;;;;1.48;0.20;;;0.80;99.90;;;;;;5113703;28;20222;-58
2021/03/08 05:31:39;;;;;;;1.40;0.20;;;0.90;99.90;;;;;;5106523;28;20214;-56
2021/03/08 05:34:07;;;;;;;1.50;0.20;;;0.80;99.90;;;;;;5083655;28;20175;-56
2021/03/08 05:36:36;;;;;;;1.45;0.20;;;0.70;99.90;;;;;;5091036;28;20172;-56
2021/03/08 05:39:02;;;;;;;1.50;0.30;;;0.70;99.90;;;;;;5092697;28;20203;-56
2021/03/08 05:41:40;;;;;;;1.50;0.57;;;0.70;99.90;;;;;;5069056;28;20176;-56
2021/03/08 05:44:07;;;;;;;1.45;0.20;;;0.60;99.90;;;;;;5081659;28;20450;-56
2021/03/08 05:47:04;;;;;;;1.42;0.20;;;0.50;99.90;;;;;;5088234;28;20634;-56
2021/03/08 05:50:05;;;;;;;1.40;0.20;;;0.60;99.90;;;;;;5087558;28;20251;-56
2021/03/08 05:52:59;;;;;;;1.50;0.20;;;0.70;99.90;;;;;;5073475;28;20223;-56
2021/03/08 05:55:30;;;;;;;1.60;0.65;;;0.70;99.90;;;;;;5083919;28;20184;-56
2021/03/08 05:58:20;;;;;;;1.50;0.20;;;0.70;99.90;;;;;;5091280;28;20260;-55
2021/03/08 06:01:00;;;;;;;1.50;0.20;;;0.70;99.90;;;;;;5088093;28;20172;-58
2021/03/08 06:04:07;;;;;;;1.50;0.20;;;0.60;99.90;;;;;;5087020;28;20559;-56
2021/03/08 06:07:03;;;;;;;1.50;0.20;;;0.60;99.90;;;;;;5092179;28;20183;-56
2021/03/08 06:09:45;;;;;;;1.40;0.20;;;0.60;99.90;;;;;;5111284;28;20229;-56
2021/03/08 06:12:17;;;;;;;1.60;0.38;;;0.60;99.90;;;;;;5111961;28;20229;-56
2021/03/08 06:14:44;;;;;;;1.45;0.20;;;0.60;99.90;;;;;;5097875;28;20538;-59
2021/03/08 06:17:17;;;;;;;1.50;0.30;;;0.60;99.90;;;;;;5098617;28;20184;-56
2021/03/08 06:19:44;;;;;;;1.50;0.20;;;0.60;99.90;;;;;;5091879;28;20250;-56
2021/03/08 06:22:12;;;;;;;1.45;0.20;;;0.60;99.90;;;;;;5092265;28;20191;-57
2021/03/08 06:24:39;;;;;;;1.50;0.20;;;0.70;99.90;;;;;;5094568;28;20180;-56
2021/03/08 06:27:07;;;;;;;1.50;0.40;;;0.70;99.90;;;;;;5098347;28;20190;-57
2021/03/08 06:29:34;;;;;;;1.48;0.20;;;0.70;99.90;;;;;;5090949;28;20215;-57
2021/03/08 06:32:01;;;;;;;1.40;0.20;;;0.80;99.90;;;;;;5093715;28;20192;-56
2021/03/08 06:34:26;;;;;;;1.50;0.30;;;0.90;99.90;;;;;;5091489;28;20271;-57
2021/03/08 06:36:53;;;;;;;1.40;0.20;;;0.90;99.90;;;;;;5092562;28;20267;-57
2021/03/08 06:39:19;;;;;;;1.50;0.20;;;1.10;99.90;;;;;;5090449;28;20196;-57
2021/03/08 06:41:44;;;;;;;1.40;0.20;;;1.20;99.90;;;;;;5092410;28;20192;-57
2021/03/08 06:44:10;;;;;;;1.47;0.20;;;1.20;99.90;;;;;;5092119;28;20195;-57
2021/03/08 06:46:36;;;;;;;1.40;0.20;;;1.30;99.90;;;;;;5095019;28;20184;-56
2021/03/08 06:49:03;;;;;;;1.50;0.20;;;1.30;99.90;;;;;;5095768;28;20203;-57
2021/03/08 06:51:28;;;;;;;1.45;0.20;;;1.30;99.90;;;;;;5077122;28;20184;-58
2021/03/08 06:53:54;;;;;;;1.50;0.30;;;1.30;99.90;;;;;;5094333;28;20193;-57
2021/03/08 06:56:22;;;;;;;1.43;0.20;;;1.30;99.90;;;;;;5087436;28;20203;-57
2021/03/08 06:59:03;;;;;;;1.45;0.20;;;1.30;99.90;;;;;;5091975;28;20204;-57
2021/03/08 07:01:31;;;;;;;1.48;0.20;;;1.20;99.90;;;;;;5084852;28;20186;-57
2021/03/08 07:03:58;;;;;;;1.48;0.20;;;1.20;99.90;;;;;;5088028;28;20186;-57
2021/03/08 07:06:24;;;;;;;1.40;0.20;;;1.20;99.90;;;;;;5091253;28;20191;-58
2021/03/08 07:08:50;;;;;;;1.50;0.20;;;1.20;99.90;;;;;;5059611;28;20826;-58
2021/03/08 07:11:20;;;;;;;1.40;0.20;;;1.30;99.90;;;;;;5053606;28;20176;-58
2021/03/08 07:13:46;;;;;;;1.48;0.20;;;1.20;99.90;;;;;;5090964;28;20557;-58
2021/03/08 07:16:12;;;;;;;1.42;0.20;;;1.20;99.90;;;;;;5090142;28;20179;-58
2021/03/08 07:18:38;;;;;;;1.50;0.20;;;1.20;99.90;;;;;;5096753;28;20204;-59
2021/03/08 07:21:15;;;;;;;1.45;0.20;;;1.20;99.90;;;;;;5097315;28;20272;-58
2021/03/08 07:23:42;;;;;;;1.40;0.20;;;1.20;99.90;;;;;;5104301;28;20251;-59
2021/03/08 07:26:09;;;;;;;1.50;0.20;;;1.20;99.90;;;;;;5103388;28;20225;-57
2021/03/08 07:28:35;;;;;;;1.40;0.20;;;1.20;99.90;;;;;;5092824;28;20214;-60
2021/03/08 07:31:00;;;;;;;1.43;0.20;;;1.30;99.90;;;;;;5093420;28;20184;-56
2021/03/08 07:33:26;;;;;;;1.40;0.20;;;1.30;99.90;;;;;;5073067;28;20207;-57
2021/03/08 07:35:53;;;;;;;1.40;0.20;;;1.40;99.90;;;;;;5094313;28;20199;-57
2021/03/08 07:38:37;;;;;;;1.50;0.20;;;1.40;99.90;;;;;;5089936;28;20249;-57
2021/03/08 07:41:14;;;;;;;1.73;0.93;;;1.50;99.90;;;;;;5091244;28;23668;-57
2021/03/08 07:43:42;;;;;;;1.45;0.20;;;1.50;99.90;;;;;;5089840;28;20554;-57
2021/03/08 07:46:33;;;;;;;2.15;1.10;;;1.60;99.90;;;;;;5090738;28;20187;-57
2021/03/08 07:49:00;;;;;;;1.90;1.58;;;1.60;99.90;;;;;;5089183;28;20558;-57
2021/03/08 07:51:26;;;;;;;1.70;0.73;;;1.60;99.90;;;;;;5085497;28;20188;-57
2021/03/08 07:54:06;;;;;;;1.43;0.20;;;1.60;99.90;;;;;;5087928;28;20183;-57
2021/03/08 07:56:33;;;;;;;1.50;0.30;;;1.60;99.90;;;;;;5086842;28;20604;-59
2021/03/08 07:58:59;;;;;;;1.45;0.25;;;1.60;99.90;;;;;;5091351;28;20204;-59
2021/03/08 08:01:25;;;;;;;1.50;0.20;;;1.70;99.90;;;;;;5089770;28;20535;-59
2021/03/08 08:03:52;;;;;;;1.50;0.30;;;1.70;99.90;;;;;;5085931;28;20483;-59
2021/03/08 08:06:20;;;;;;;1.48;0.20;;;1.70;99.90;;;;;;5088543;28;20191;-59
2021/03/08 08:08:48;;;;;;;1.50;0.20;;;1.80;99.90;;;;;;5087947;28;20215;-59
2021/03/08 08:11:16;;;;;;;1.60;0.63;;;1.80;99.90;;;;;;5087975;28;20550;-59
2021/03/08 08:13:46;;;;;;;1.48;0.20;;;1.90;99.90;;;;;;5090998;28;20681;-59
2021/03/08 08:16:12;;;;;;;1.50;0.20;;;1.90;99.90;;;;;;5090415;28;20184;-59
2021/03/08 08:18:47;;;;;;;1.60;0.45;;;2.00;99.90;;;;;;5087451;28;20205;-59
2021/03/08 08:21:20;;;;;;;1.50;0.20;;;2.10;99.90;;;;;;5090830;28;20179;-59
2021/03/08 08:23:55;;;;;;;1.50;0.20;;;2.10;99.90;;;;;;5072181;28;20260;-59
2021/03/08 08:26:22;;;;;;;1.50;0.20;;;2.20;99.90;;;;;;5085938;28;20212;-59
2021/03/08 08:28:49;;;;;;;2.28;2.05;;;2.30;99.90;;;;;;5091175;28;20227;-59
2021/03/08 08:31:15;;;;;;;1.60;0.57;;;2.30;99.90;;;;;;5090043;28;20203;-57
2021/03/08 08:33:40;;;;;;;1.50;0.20;;;2.30;99.90;;;;;;5088613;28;20204;-58
2021/03/08 08:36:13;;;;;;;1.70;0.40;;;2.40;99.90;;;;;;5092333;28;20438;-59
2021/03/08 08:38:40;;;;;;;1.50;0.20;;;2.40;99.90;;;;;;5089485;28;20235;-58
2021/03/08 08:41:18;;;;;;;3.17;2.03;;;2.50;99.90;;;;;;5090219;28;20180;-58
2021/03/08 08:43:44;;;;;;;1.50;0.20;;;2.50;99.90;;;;;;5091101;28;20176;-58
2021/03/08 08:46:36;;;;;;;1.48;0.20;;;2.60;99.90;;;;;;5089696;28;20278;-58
2021/03/08 08:49:05;;;;;;;1.50;0.20;;;2.70;99.90;;;;;;5085428;28;20204;-59
2021/03/08 08:51:51;;;;;;;1.50;0.20;;;2.70;99.90;;;;;;5082963;28;20192;-58
2021/03/08 08:54:28;;;;;;;1.50;0.20;;;2.80;99.90;;;;;;5082957;28;20189;-58
2021/03/08 08:57:08;;;;;;;2.10;0.88;;;2.90;99.90;;;;;;5085246;28;20532;-58
2021/03/08 08:59:35;;;;;;;1.60;0.45;;;3.00;99.90;;;;;;5088211;28;20223;-58
2021/03/08 09:02:14;;;;;;;1.50;0.20;;;3.00;99.90;;;;;;5087507;28;20188;-58
2021/03/08 09:04:40;;;;;;;1.50;0.20;;;3.10;99.90;;;;;;5086980;28;20270;-59
2021/03/08 09:07:19;;;;;;;1.50;0.20;;;3.20;99.90;;;;;;5090398;28;20247;-58
2021/03/08 09:09:48;;;;;;;1.90;0.40;;;3.30;99.90;;;;;;5091812;28;20222;-58
2021/03/08 09:12:37;;;;;;;1.50;0.20;;;3.40;99.90;;;;;;5086702;28;20195;-58
2021/03/08 09:15:11;;;;;;;1.92;1.42;;;3.50;99.90;;;;;;5081660;28;20176;-58
2021/03/08 09:17:39;;;;;;;1.50;0.20;;;3.50;99.90;;;;;;5095808;28;20218;-58
2021/03/08 09:20:06;;;;;;;1.50;0.20;;;3.60;99.90;;;;;;5084756;28;20208;-58
2021/03/08 09:22:51;;;;;;;4.20;1.70;;;3.60;99.90;;;;;;5091788;28;20184;-60
2021/03/08 09:25:17;;;;;;;1.50;0.20;;;3.60;99.90;;;;;;5084809;28;20259;-58
2021/03/08 09:27:47;;;;;;;1.50;0.20;;;3.70;99.90;;;;;;5091131;28;20275;-58
2021/03/08 09:30:18;;;;;;;8.02;4.63;;;3.80;99.90;;;;;;5088165;28;20212;-58
2021/03/08 09:32:54;;;;;;;1.73;0.82;;;3.90;99.90;;;;;;5096505;28;20704;-58
2021/03/08 09:35:21;;;;;;;1.50;0.20;;;4.00;99.90;;;;;;5090483;28;20202;-58
2021/03/08 09:37:52;;;;;;;1.50;0.20;;;4.00;99.90;;;;;;5090016;28;20176;-58
2021/03/08 09:40:21;;;;;;;1.50;0.20;;;4.20;99.90;;;;;;5095508;28;20251;-57
2021/03/08 09:42:46;;;;;;;1.60;0.43;;;4.30;99.90;;;;;;5093830;28;20269;-59
2021/03/08 09:45:19;;;;;;;1.50;0.20;;;4.40;99.90;;;;;;5092808;28;20226;-61
2021/03/08 09:47:45;;;;;;;1.50;0.20;;;4.50;99.90;;;;;;5097816;28;20172;-57
2021/03/08 09:50:17;;;;;;;1.52;0.20;;;4.60;99.90;;;;;;5089298;28;20286;-57
2021/03/08 09:52:43;;;;;;;1.50;0.20;;;4.70;99.90;;;;;;5091143;28;20207;-57
2021/03/08 09:55:15;;;;;;;1.52;0.20;;;4.90;99.90;;;;;;5095071;28;20175;-57
2021/03/08 09:57:42;;;;;;;1.90;0.80;;;5.00;99.90;;;;;;5094364;28;20573;-58
2021/03/08 10:00:18;;;;;;;1.50;0.30;;;5.10;99.90;;;;;;5092328;28;20674;-58
2021/03/08 10:02:44;;;;;;;1.98;1.17;;;5.20;99.90;;;;;;5094332;28;20179;-58
2021/03/08 10:05:12;;;;;;;1.50;0.20;;;5.40;99.90;;;;;;5089396;28;20196;-57
2021/03/08 10:07:55;;;;;;;1.50;0.20;;;5.50;99.90;;;;;;5095276;28;20970;-58
2021/03/08 10:10:23;;;;;;;1.50;0.30;;;5.60;99.90;;;;;;5090289;28;20203;-57
2021/03/08 10:13:00;;;;;;;6.00;3.55;;;5.70;99.90;;;;;;5091076;28;20226;-57
2021/03/08 10:15:26;;;;;;;1.50;0.20;;;5.70;99.90;;;;;;5078037;28;20175;-57
2021/03/08 10:17:59;;;;;;;1.50;0.20;;;5.70;99.90;;;;;;5095046;28;20180;-57
2021/03/08 10:20:26;;;;;;;1.50;0.20;;;5.80;99.90;;;;;;5088777;28;20631;-57
2021/03/08 10:22:54;;;;;;;1.40;0.20;;;5.90;99.90;;;;;;5093245;28;20187;-57
2021/03/08 10:25:22;;;;;;;1.50;0.20;;;6.00;99.80;;;;;;5089983;28;20172;-57
2021/03/08 10:28:02;;;;;;;1.60;0.65;;;6.10;99.60;;;;;;5087460;28;20188;-58
2021/03/08 10:30:33;;;;;;;1.50;0.20;;;6.10;99.10;;;;;;5068621;28;20184;-58
2021/03/08 10:33:02;;;;;;;1.50;0.20;;;6.20;99.30;;;;;;5094629;28;20229;-58
2021/03/08 10:35:29;;;;;;;1.50;0.20;;;6.20;98.70;;;;;;5089794;28;20215;-59
2021/03/08 10:37:55;;;;;;;1.50;0.20;;;6.30;98.70;;;;;;5091391;28;20187;-56
2021/03/08 10:40:22;;;;;;;1.50;0.20;;;6.30;98.70;;;;;;5089954;28;20658;-55
2021/03/08 10:42:47;;;;;;;2.80;1.40;;;6.40;98.90;;;;;;5117729;22;20339;-64
2021/03/08 10:45:14;;;;;;;1.50;0.30;;;6.40;98.50;;;;;;5095152;28;20196;-63
2021/03/08 10:47:40;;;;;;;2.13;0.77;;;6.40;98.20;;;;;;5096301;28;20437;-62
2021/03/08 10:50:06;;;;;;;1.50;0.20;;;6.40;98.20;;;;;;5095632;28;20546;-61
2021/03/08 10:52:32;;;;;;;1.50;0.20;;;6.40;98.30;;;;;;5096391;28;20214;-61
2021/03/08 10:54:58;;;;;;;6.38;2.20;;;6.60;98.20;;;;;;5093716;28;20191;-61
2021/03/08 10:57:25;;;;;;;1.50;0.20;;;6.60;97.90;;;;;;5090061;28;20595;-64
2021/03/08 10:59:57;;;;;;;1.50;0.20;;;6.70;97.70;;;;;;5092759;28;20320;-61
2021/03/08 11:02:24;;;;;;;1.50;0.20;;;6.80;97.10;;;;;;5095816;28;20295;-62
2021/03/08 11:05:11;;;;;;;1.50;0.20;;;6.80;96.50;;;;;;5094739;28;20726;-62
2021/03/08 11:07:36;;;;;;;1.50;0.20;;;6.80;96.50;;;;;;5103812;28;20656;-62
2021/03/08 11:10:03;;;;;;;1.70;0.63;;;6.90;96.60;;;;;;5090938;28;20183;-62
2021/03/08 11:12:28;;;;;;;1.50;0.20;;;6.90;96.20;;;;;;5090722;28;20234;-63
2021/03/08 11:14:56;;;;;;;1.50;0.20;;;7.00;96.50;;;;;;5092552;28;20180;-61
2021/03/08 11:17:43;;;;;;;1.50;0.20;;;7.10;96.30;;;;;;5092499;28;20171;-62
2021/03/08 11:20:12;;;;;;;1.52;0.35;;;7.10;95.80;;;;;;5094508;28;20176;-62
2021/03/08 11:23:03;;;;;;;1.50;0.20;;;7.10;95.80;;;;;;5095346;28;20200;-61
2021/03/08 11:25:38;;;;;;;1.50;0.30;;;7.20;95.70;;;;;;5094263;28;20223;-62
2021/03/08 11:28:10;;;;;;;1.48;0.20;;;7.20;95.80;;;;;;5114953;28;20465;-62
2021/03/08 11:30:36;;;;;;;1.50;0.20;;;7.20;96.10;;;;;;5114205;28;20179;-63
2021/03/08 11:33:07;;;;;;;1.83;0.90;;;7.20;96.00;;;;;;5110881;28;20207;-60
2021/03/08 11:35:35;;;;;;;1.50;0.20;;;7.20;95.70;;;;;;5110233;28;20448;-65
2021/03/08 11:38:06;;;;;;;1.50;0.20;;;7.20;96.20;;;;;;5107630;28;20808;-62
2021/03/08 11:40:33;;;;;;;1.70;0.83;;;7.30;95.90;;;;;;5093057;28;20446;-62
2021/03/08 11:43:00;;;;;;;1.50;0.20;;;7.20;95.30;;;;;;5090670;28;20462;-62
2021/03/08 11:45:27;;;;;;;1.47;0.20;;;7.30;95.70;;;;;;5096461;28;20928;-62
2021/03/08 11:47:59;;;;;;;1.50;0.20;;;7.40;95.30;;;;;;5095325;28;20465;-62
2021/03/08 11:50:26;;;;;;;1.50;0.20;;;7.30;94.90;;;;;;5092818;28;20445;-62
2021/03/08 11:52:51;;;;;;;2.37;1.23;;;7.30;95.10;;;;;;5101940;28;20290;-62
2021/03/08 11:55:18;;;;;;;2.43;1.37;;;7.40;95.60;;;;;;5100224;28;20462;-63
2021/03/08 11:57:45;;;;;;;1.50;0.50;;;7.40;95.10;;;;;;5099584;28;20181;-62
2021/03/08 12:00:12;;;;;;;1.47;0.20;;;7.40;95.10;;;;;;5096109;28;20434;-64
2021/03/08 12:02:38;;;;;;;7.93;2.83;;;7.60;94.90;;;;;;5102998;28;20453;-61
2021/03/08 12:05:04;;;;;;;1.43;0.20;;;7.60;94.90;;;;;;5097619;28;20442;-62
2021/03/08 12:07:30;;;;;;;1.80;0.63;;;7.60;94.30;;;;;;5104388;28;20434;-61
2021/03/08 12:09:56;;;;;;;1.50;0.20;;;7.70;94.50;;;;;;5106127;28;20445;-62
2021/03/08 12:12:21;;;;;;;1.50;0.20;;;7.80;94.70;;;;;;5094153;28;20203;-61
2021/03/08 12:14:47;;;;;;;2.27;0.70;;;7.80;94.60;;;;;;5089684;28;20185;-61
2021/03/08 12:17:13;;;;;;;1.63;0.47;;;7.90;93.70;;;;;;5095125;28;20176;-61
2021/03/08 12:19:38;;;;;;;1.50;0.20;;;7.90;93.50;;;;;;5088266;28;20180;-63
2021/03/08 12:22:05;;;;;;;1.80;0.60;;;8.00;93.90;;;;;;5088412;28;20207;-61
2021/03/08 12:24:31;;;;;;;1.50;0.20;;;8.10;93.90;;;;;;5100053;28;20183;-61
2021/03/08 12:26:56;;;;;;;7.73;3.43;;;8.10;93.90;;;;;;5087728;28;21035;-62
2021/03/08 12:29:22;;;;;;;1.90;0.60;;;8.10;93.30;;;;;;5091033;28;20434;-62
2021/03/08 12:31:47;;;;;;;1.50;0.20;;;7.90;93.30;;;;;;5090548;28;20204;-61
2021/03/08 12:34:13;;;;;;;2.73;1.10;;;7.80;93.50;;;;;;5094784;28;20180;-61
2021/03/08 12:36:38;;;;;;;1.43;0.20;;;7.90;93.80;;;;;;5087372;28;20175;-62
2021/03/08 12:39:04;;;;;;;1.50;0.20;;;7.90;93.40;;;;;;5089398;28;20180;-62
2021/03/08 12:41:30;;;;;;;2.93;1.50;;;8.00;93.60;;;;;;5094062;28;20215;-62
2021/03/08 12:43:56;;;;;;;9.93;4.33;;;8.00;93.30;;;;;;5094585;28;20434;-63
2021/03/08 12:46:23;;;;;;;1.43;0.20;;;7.90;93.10;;;;;;5098610;28;20502;-64
2021/03/08 12:48:49;;;;;;;1.40;0.20;;;8.00;93.20;;;;;;5090542;28;20237;-61
2021/03/08 12:51:15;;;;;;;5.90;3.67;;;8.00;93.30;;;;;;5093599;28;20453;-61
2021/03/08 12:53:41;;;;;;;1.70;0.60;;;7.80;93.30;;;;;;5091280;28;20207;-61
2021/03/08 12:56:06;;;;;;;1.47;0.27;;;7.80;93.40;;;;;;5090908;28;20453;-61
2021/03/08 12:58:32;;;;;;;1.43;0.20;;;7.80;93.40;;;;;;5091718;28;20191;-61
2021/03/08 13:00:57;;;;;;;1.50;0.20;;;7.80;93.30;;;;;;5095571;28;20167;-62
2021/03/08 13:03:24;;;;;;;5.30;1.67;;;7.80;93.50;;;;;;5091998;28;20168;-61
2021/03/08 13:05:50;;;;;;;1.40;0.20;;;7.60;93.90;;;;;;5093705;28;20180;-61
2021/03/08 13:08:15;;;;;;;1.50;0.20;;;7.70;94.00;;;;;;5093130;28;20919;-61
2021/03/08 13:10:41;;;;;;;1.50;0.20;;;7.80;93.90;;;;;;5087657;28;20216;-61